Time;durP1;ratioP1;P1;durP2;ratioP2;P2;SDS_P1;SDS_P2;PMS_P1;PMS_P2;Temp;Humidity;BMP_temperature;BMP_pressure;BME280_temperature;BME280_humidity;BME280_pressure;Samples;Min_cycle;Max_cycle;Signal;HPM_P1;HPM_P2
2022/09/17 00:01:00;;;;;;;4.55;2.80;;;;;;;21.74;59.17;98388.22;5033981;28;20086;-73
2022/09/17 00:03:27;;;;;;;10.50;2.75;;;;;;;20.76;62.66;98396.44;5033995;28;20127;-73
2022/09/17 00:06:04;;;;;;;5.70;3.20;;;;;;;20.77;62.87;98402.94;5034047;28;20029;-73
2022/09/17 00:08:30;;;;;;;11.50;3.40;;;;;;;20.95;62.50;98393.31;5033818;28;20597;-73
2022/09/17 00:10:56;;;;;;;8.68;2.78;;;;;;;21.41;60.77;98388.03;5033964;28;20025;-73
2022/09/17 00:13:22;;;;;;;7.75;3.05;;;;;;;21.12;61.81;98378.00;5033970;28;20106;-73
2022/09/17 00:15:47;;;;;;;10.20;3.10;;;;;;;20.64;63.06;98370.69;5033617;28;20060;-73
2022/09/17 00:18:15;;;;;;;8.85;4.30;;;;;;;20.58;63.38;98371.16;5033926;28;20026;-73
2022/09/17 00:20:43;;;;;;;7.88;3.40;;;;;;;20.71;62.91;98381.91;5032692;28;20064;-73
2022/09/17 00:23:09;;;;;;;11.15;3.13;;;;;;;20.56;63.05;98382.16;5033704;28;20037;-73
2022/09/17 00:25:39;;;;;;;8.88;3.70;;;;;;;20.69;62.73;98385.19;5033569;28;20021;-73
2022/09/17 00:28:05;;;;;;;6.70;2.78;;;;;;;21.13;60.96;98385.28;5033089;28;20021;-73
2022/09/17 00:30:31;;;;;;;8.20;3.47;;;;;;;21.22;60.50;98383.91;5033396;28;20400;-73
2022/09/17 00:32:57;;;;;;;10.30;3.50;;;;;;;21.00;61.18;98392.84;5033468;28;20034;-73
2022/09/17 00:35:26;;;;;;;6.30;2.85;;;;;;;20.76;61.87;98402.13;5033459;28;20029;-72
2022/09/17 00:37:52;;;;;;;11.70;4.53;;;;;;;20.67;62.51;98392.53;5033342;28;20040;-72
2022/09/17 00:40:19;;;;;;;18.73;3.72;;;;;;;20.40;63.36;98408.34;5033334;28;20424;-73
2022/09/17 00:42:44;;;;;;;6.60;3.55;;;;;;;20.68;62.28;98399.81;5031944;28;20034;-73
2022/09/17 00:45:11;;;;;;;14.95;3.20;;;;;;;20.48;62.45;98411.88;5033137;28;20061;-73
2022/09/17 00:47:49;;;;;;;7.35;3.08;;;;;;;20.36;62.72;98401.94;5033134;28;20068;-73
2022/09/17 00:50:37;;;;;;;7.65;3.95;;;;;;;19.71;64.76;98391.38;5033048;28;20048;-73
2022/09/17 00:53:11;;;;;;;6.47;3.47;;;;;;;19.61;65.49;98393.13;5033154;28;20065;-72
2022/09/17 00:55:41;;;;;;;17.20;2.97;;;;;;;19.75;65.01;98395.00;5031782;28;20124;-72
2022/09/17 00:58:10;;;;;;;9.02;3.10;;;;;;;19.67;65.24;98393.47;5033125;28;20144;-72
2022/09/17 01:00:36;;;;;;;8.07;3.22;;;;;;;19.68;64.93;98395.91;5032824;28;20099;-72
2022/09/17 01:03:02;;;;;;;6.15;2.60;;;;;;;19.55;65.94;98397.66;5032874;28;20026;-72
2022/09/17 01:05:41;;;;;;;9.00;2.63;;;;;;;19.54;66.02;98387.53;5031540;28;20460;-73
2022/09/17 01:08:09;;;;;;;6.95;3.75;;;;;;;19.59;66.03;98392.75;5032754;28;20026;-73
2022/09/17 01:11:12;;;;;;;10.40;3.05;;;;;;;19.77;65.40;98379.16;5032693;28;20029;-72
2022/09/17 01:13:46;;;;;;;10.55;4.30;;;;;;;19.84;65.27;98383.94;5033276;28;20434;-72
2022/09/17 01:16:52;;;;;;;8.73;3.65;;;;;;;19.91;65.05;98386.69;5031262;28;20025;-73
2022/09/17 01:19:45;;;;;;;9.80;3.63;;;;;;;19.80;65.35;98388.84;5011534;28;20037;-73
2022/09/17 01:22:19;;;;;;;6.13;3.15;;;;;;;19.80;65.53;98390.91;5032470;28;20029;-73
2022/09/17 01:24:53;;;;;;;9.75;3.60;;;;;;;19.90;65.57;98390.75;5032405;28;20036;-73
2022/09/17 01:27:52;;;;;;;6.28;3.17;;;;;;;19.75;66.23;98395.78;5031085;28;20029;-72
2022/09/17 01:30:54;;;;;;;10.90;3.67;;;;;;;19.49;67.31;98400.16;5041626;28;20525;-72
2022/09/17 01:33:33;;;;;;;12.77;3.78;;;;;;;19.28;68.02;98382.16;5030970;28;20537;-73
2022/09/17 01:36:23;;;;;;;7.97;4.13;;;;;;;19.42;67.71;98383.22;5032290;28;20067;-72
2022/09/17 01:39:08;;;;;;;14.50;4.15;;;;;;;19.32;68.21;98393.47;5031631;28;20029;-72
2022/09/17 01:41:40;;;;;;;8.13;3.50;;;;;;;19.17;68.53;98384.28;5040943;28;20523;-73
2022/09/17 01:44:25;;;;;;;10.38;4.00;;;;;;;19.20;68.52;98381.44;5031915;28;20523;-72
2022/09/17 01:47:15;;;;;;;7.82;3.67;;;;;;;19.44;67.40;98387.25;5032109;28;20059;-73
2022/09/17 01:49:41;;;;;;;6.10;3.45;;;;;;;19.52;67.47;98392.81;5031920;28;20404;-73
2022/09/17 01:52:10;;;;;;;10.80;4.30;;;;;;;19.18;69.41;98375.34;5031937;28;20044;-72
2022/09/17 01:54:43;;;;;;;10.90;3.20;;;;;;;19.39;68.56;98369.91;5032034;28;20454;-72
2022/09/17 01:57:25;;;;;;;8.10;3.53;;;;;;;19.61;67.86;98361.94;5031945;28;20044;-72
2022/09/17 02:00:11;;;;;;;7.22;3.90;;;;;;;20.01;66.19;98359.41;5031930;28;20075;-72
2022/09/17 02:03:13;;;;;;;10.13;3.70;;;;;;;20.05;64.90;98357.34;5031912;28;20030;-72
2022/09/17 02:05:44;;;;;;;6.25;3.05;;;;;;;20.10;64.37;98356.06;5041414;28;20155;-72
2022/09/17 02:08:15;;;;;;;6.63;3.50;;;;;;;20.23;64.18;98358.31;5030303;28;20040;-72
2022/09/17 02:10:47;;;;;;;6.68;3.80;;;;;;;19.53;65.96;98354.72;5031743;28;20036;-72
2022/09/17 02:13:23;;;;;;;7.97;3.70;;;;;;;19.80;65.32;98359.69;5031761;28;20017;-72
2022/09/17 02:15:59;;;;;;;11.63;3.97;;;;;;;19.59;66.25;98365.19;5031657;28;20063;-72
2022/09/17 02:18:40;;;;;;;10.13;4.57;;;;;;;19.86;65.04;98358.78;5030400;28;20029;-72
2022/09/17 02:21:18;;;;;;;18.95;4.07;;;;;;;20.01;64.67;98341.59;5031474;28;20095;-72
2022/09/17 02:23:57;;;;;;;13.98;3.85;;;;;;;20.18;64.03;98348.25;5031487;28;20064;-73
2022/09/17 02:26:25;;;;;;;6.95;4.40;;;;;;;20.16;64.10;98354.34;5031345;28;20029;-72
2022/09/17 02:28:55;;;;;;;13.35;5.13;;;;;;;19.59;66.22;98336.03;5031344;28;20040;-73
2022/09/17 02:31:21;;;;;;;9.48;4.35;;;;;;;19.92;64.65;98339.25;5031404;28;20520;-72
2022/09/17 02:33:55;;;;;;;9.75;3.13;;;;;;;19.86;64.13;98343.78;5030123;28;20022;-72
2022/09/17 02:36:23;;;;;;;8.75;3.60;;;;;;;20.06;63.88;98344.75;5031523;28;20051;-72
2022/09/17 02:38:57;;;;;;;21.02;5.07;;;;;;;20.17;63.18;98343.81;5031341;28;20030;-73
2022/09/17 02:41:28;;;;;;;13.80;4.30;;;;;;;20.28;62.67;98327.41;5031104;28;20099;-73
2022/09/17 02:44:09;;;;;;;9.23;5.53;;;;;;;20.06;63.97;98330.56;5031246;28;20431;-73
2022/09/17 02:46:50;;;;;;;14.25;6.13;;;;;;;19.34;67.51;98326.59;5031239;28;20031;-72
2022/09/17 02:49:48;;;;;;;14.65;5.50;;;;;;;19.29;67.91;98314.91;5031106;28;20492;-72
2022/09/17 02:52:23;;;;;;;9.40;5.90;;;;;;;19.47;67.31;98309.03;5037673;28;20029;-72
2022/09/17 02:55:07;;;;;;;9.82;6.13;;;;;;;19.70;66.67;98302.66;5036446;28;20523;-72
2022/09/17 02:57:38;;;;;;;13.93;6.32;;;;;;;19.61;65.86;98305.22;5037694;28;20442;-72
2022/09/17 03:00:16;;;;;;;11.65;4.60;;;;;;;19.29;65.52;98314.91;5037673;28;20017;-72
2022/09/17 03:02:52;;;;;;;10.93;4.40;;;;;;;18.47;68.01;98306.81;5037620;28;20510;-72
2022/09/17 03:05:20;;;;;;;6.68;3.85;;;;;;;18.58;67.47;98312.38;5036354;28;20029;-72
2022/09/17 03:07:46;;;;;;;8.52;4.80;;;;;;;18.38;68.28;98313.72;5037706;28;20022;-72
2022/09/17 03:10:12;;;;;;;8.18;4.00;;;;;;;18.76;66.83;98283.88;5037481;28;20108;-72
2022/09/17 03:12:38;;;;;;;12.77;4.25;;;;;;;19.03;65.84;98284.03;5037602;28;20490;-72
2022/09/17 03:15:04;;;;;;;7.80;3.85;;;;;;;18.96;66.15;98297.44;5037544;28;20021;-73
2022/09/17 03:17:29;;;;;;;12.63;3.83;;;;;;;18.30;68.44;98306.50;5037542;28;20083;-72
2022/09/17 03:19:55;;;;;;;10.13;4.32;;;;;;;18.51;68.33;98299.06;5037460;28;20025;-72
2022/09/17 03:22:20;;;;;;;14.68;4.28;;;;;;;18.37;69.85;98303.63;5037395;28;20408;-73
2022/09/17 03:24:46;;;;;;;12.10;4.53;;;;;;;18.52;69.24;98318.50;5037540;28;20395;-72
2022/09/17 03:27:11;;;;;;;8.65;4.00;;;;;;;18.72;68.56;98319.94;5036207;28;20029;-72
2022/09/17 03:29:37;;;;;;;10.30;3.95;;;;;;;18.35;70.17;98302.44;5037307;28;20025;-72
2022/09/17 03:32:03;;;;;;;10.70;5.25;;;;;;;18.76;69.02;98306.53;5037472;28;20035;-72
2022/09/17 03:34:28;;;;;;;18.05;3.85;;;;;;;18.69;68.56;98298.09;5037346;28;20029;-72
2022/09/17 03:36:54;;;;;;;6.03;3.22;;;;;;;18.80;68.17;98278.97;5037350;28;20017;-72
2022/09/17 03:39:19;;;;;;;12.48;3.75;;;;;;;18.85;67.54;98267.19;5037288;28;20116;-72
2022/09/17 03:41:44;;;;;;;10.85;4.07;;;;;;;18.44;69.15;98263.13;5037234;28;20054;-72
2022/09/17 03:44:10;;;;;;;10.75;4.03;;;;;;;17.85;71.34;98263.94;5035846;28;20049;-72
2022/09/17 03:46:36;;;;;;;18.52;4.55;;;;;;;17.93;72.15;98246.53;5037259;28;20396;-72
2022/09/17 03:49:01;;;;;;;14.05;3.95;;;;;;;18.37;69.99;98258.34;5037240;28;20033;-72
2022/09/17 03:51:27;;;;;;;10.43;3.58;;;;;;;17.88;72.37;98263.94;5037198;28;20021;-72
2022/09/17 03:53:52;;;;;;;18.17;3.92;;;;;;;17.90;72.13;98249.38;5037276;28;20452;-72
2022/09/17 03:56:18;;;;;;;11.00;3.90;;;;;;;18.14;70.79;98244.00;5037243;28;20029;-72
2022/09/17 03:58:43;;;;;;;18.65;4.63;;;;;;;18.35;69.88;98260.81;5035851;28;20514;-72
2022/09/17 04:01:09;;;;;;;16.67;3.80;;;;;;;18.51;68.95;98248.91;5037087;28;20400;-72
2022/09/17 04:03:34;;;;;;;18.42;4.40;;;;;;;18.47;69.04;98259.47;5033496;28;20479;-72
2022/09/17 04:06:00;;;;;;;15.93;3.72;;;;;;;18.30;69.40;98281.03;5032679;28;20026;-72
2022/09/17 04:08:26;;;;;;;15.50;3.53;;;;;;;18.47;68.85;98273.63;5033788;28;20033;-72
2022/09/17 04:10:51;;;;;;;12.23;3.55;;;;;;;18.63;68.21;98267.41;5034213;28;20037;-73
2022/09/17 04:13:18;;;;;;;12.63;3.72;;;;;;;18.85;67.19;98258.69;5033870;28;20032;-72
2022/09/17 04:15:44;;;;;;;18.95;3.70;;;;;;;19.02;66.22;98253.28;5033876;28;20558;-72
2022/09/17 04:18:09;;;;;;;21.38;3.35;;;;;;;19.12;65.60;98238.19;5033792;28;20026;-72
2022/09/17 04:20:35;;;;;;;11.57;3.40;;;;;;;19.14;65.88;98241.41;5033713;28;20021;-72
2022/09/17 04:23:01;;;;;;;19.20;4.22;;;;;;;18.93;66.33;98225.44;5033714;28;20064;-72
2022/09/17 04:25:26;;;;;;;12.02;3.67;;;;;;;19.13;65.64;98236.97;5033615;28;20025;-73
2022/09/17 04:27:52;;;;;;;16.60;3.85;;;;;;;19.03;66.02;98237.88;5033651;28;20045;-72
2022/09/17 04:30:17;;;;;;;15.75;3.78;;;;;;;19.03;66.52;98241.53;5033369;28;20403;-72
2022/09/17 04:32:44;;;;;;;28.25;4.28;;;;;;;19.14;66.21;98258.41;5033532;28;20104;-72
2022/09/17 04:35:10;;;;;;;15.57;3.67;;;;;;;18.63;68.11;98261.75;5033477;28;20029;-72
2022/09/17 04:37:36;;;;;;;25.80;5.43;;;;;;;18.82;67.42;98270.06;5040208;28;20021;-73
2022/09/17 04:40:02;;;;;;;19.10;4.38;;;;;;;18.87;67.42;98273.25;5037459;28;20055;-72
2022/09/17 04:42:27;;;;;;;14.38;4.57;;;;;;;18.45;68.52;98272.41;5053180;28;20025;-72
2022/09/17 04:44:53;;;;;;;14.25;5.32;;;;;;;17.83;71.81;98292.66;5051792;28;20041;-72
2022/09/17 04:47:19;;;;;;;32.80;7.32;;;;;;;17.67;73.10;98296.78;5053037;28;20025;-72
2022/09/17 04:49:44;;;;;;;10.13;4.45;;;;;;;17.30;74.61;98274.75;5046975;28;20021;-71
2022/09/17 04:52:10;;;;;;;24.48;6.90;;;;;;;17.54;74.15;98271.00;5041803;28;20484;-71
2022/09/17 04:54:35;;;;;;;27.25;5.60;;;;;;;17.67;73.64;98276.97;5033227;28;20488;-71
2022/09/17 04:57:01;;;;;;;11.50;5.80;;;;;;;17.51;74.34;98276.66;5032784;28;20416;-71
2022/09/17 04:59:26;;;;;;;13.18;7.15;;;;;;;17.52;74.20;98273.44;5035909;28;20028;-71
2022/09/17 05:01:52;;;;;;;10.88;5.03;;;;;;;17.86;73.30;98268.38;5049061;28;20264;-71
2022/09/17 05:04:17;;;;;;;15.63;4.60;;;;;;;18.14;71.97;98280.78;5046507;28;20031;-71
2022/09/17 05:06:43;;;;;;;13.68;4.70;;;;;;;18.57;70.79;98277.56;5034119;28;20025;-71
2022/09/17 05:09:08;;;;;;;15.80;3.97;;;;;;;18.36;71.19;98273.72;5049398;28;20033;-72
2022/09/17 05:11:34;;;;;;;14.57;7.15;;;;;;;18.36;71.14;98262.41;5040111;28;20028;-73
2022/09/17 05:14:00;;;;;;;15.10;4.72;;;;;;;18.38;71.58;98265.63;5047492;28;20043;-74
2022/09/17 05:16:25;;;;;;;16.23;4.28;;;;;;;18.45;71.23;98283.75;5051611;28;20037;-74
2022/09/17 05:18:51;;;;;;;10.95;3.58;;;;;;;18.06;71.97;98260.22;5051321;28;20021;-74
2022/09/17 05:21:17;;;;;;;13.38;3.63;;;;;;;18.60;70.58;98275.94;5050415;28;20051;-73
2022/09/17 05:23:43;;;;;;;11.30;3.63;;;;;;;18.79;70.39;98285.88;5049431;28;20404;-72
2022/09/17 05:26:08;;;;;;;19.50;4.60;;;;;;;18.71;70.57;98293.63;5049732;28;20029;-74
2022/09/17 05:28:34;;;;;;;13.38;5.45;;;;;;;18.44;71.92;98307.63;5049748;28;20407;-73
2022/09/17 05:31:00;;;;;;;10.38;4.75;;;;;;;18.51;72.13;98310.41;5049984;28;20024;-69
2022/09/17 05:33:26;;;;;;;53.28;8.77;;;;;;;18.79;71.04;98283.03;5049885;28;20561;-74
2022/09/17 05:35:52;;;;;;;12.63;4.88;;;;;;;19.08;70.00;98282.78;5036251;28;20116;-73
2022/09/17 05:38:17;;;;;;;18.33;4.85;;;;;;;19.12;69.70;98299.72;5032167;28;20304;-71
2022/09/17 05:40:44;;;;;;;8.13;5.20;;;;;;;19.23;69.27;98311.72;5032048;28;20013;-72
2022/09/17 05:43:10;;;;;;;17.70;6.20;;;;;;;19.16;69.71;98326.78;5046621;28;20033;-72
2022/09/17 05:45:36;;;;;;;10.15;6.25;;;;;;;19.23;69.49;98323.06;5047386;28;20032;-72
2022/09/17 05:48:04;;;;;;;19.25;6.30;;;;;;;19.26;69.09;98310.09;5031050;28;20025;-72
2022/09/17 05:50:30;;;;;;;14.20;6.05;;;;;;;19.38;68.73;98317.25;5047159;28;20029;-72
2022/09/17 05:52:56;;;;;;;13.15;5.85;;;;;;;19.42;69.41;98318.00;5043310;28;20502;-73
2022/09/17 05:55:22;;;;;;;12.68;4.85;;;;;;;19.59;67.92;98319.81;5033131;28;20377;-72
2022/09/17 05:57:49;;;;;;;17.27;4.90;;;;;;;19.55;67.64;98321.09;5031961;28;20021;-72
2022/09/17 06:00:14;;;;;;;12.65;4.35;;;;;;;19.60;66.76;98324.25;5031793;28;20052;-72
2022/09/17 06:02:40;;;;;;;12.13;4.15;;;;;;;19.72;65.65;98328.56;5036878;28;20113;-73
2022/09/17 06:05:06;;;;;;;27.83;5.95;;;;;;;19.82;65.86;98326.03;5045529;28;20033;-72
2022/09/17 06:07:36;;;;;;;17.33;5.13;;;;;;;20.05;66.11;98336.66;5031767;28;20381;-72
2022/09/17 06:10:04;;;;;;;15.90;6.40;;;;;;;20.21;65.04;98338.88;5034862;28;20025;-72
2022/09/17 06:12:29;;;;;;;19.50;6.05;;;;;;;20.30;64.74;98346.84;5050367;28;20083;-72
2022/09/17 06:14:55;;;;;;;14.00;5.82;;;;;;;20.08;65.21;98352.81;5048017;28;20488;-72
2022/09/17 06:17:20;;;;;;;15.90;6.97;;;;;;;20.01;65.44;98347.28;5047076;28;20021;-74
2022/09/17 06:19:46;;;;;;;24.20;8.10;;;;;;;19.99;65.74;98369.59;5044821;28;20110;-72
2022/09/17 06:22:11;;;;;;;23.08;7.38;;;;;;;19.92;65.48;98373.31;5051507;28;20021;-72
2022/09/17 06:24:37;;;;;;;22.60;5.32;;;;;;;19.98;65.68;98388.66;5051319;28;20048;-72
2022/09/17 06:27:02;;;;;;;19.30;5.55;;;;;;;19.94;65.42;98390.75;5051029;28;20028;-73
2022/09/17 06:29:28;;;;;;;9.00;3.53;;;;;;;19.91;64.73;98383.06;5047573;28;20036;-73
2022/09/17 06:31:54;;;;;;;13.63;4.50;;;;;;;19.90;65.29;98387.91;5050343;28;20028;-72
2022/09/17 06:34:19;;;;;;;9.48;4.15;;;;;;;19.81;65.66;98375.47;5031400;28;20459;-73
2022/09/17 06:36:45;;;;;;;13.25;4.55;;;;;;;19.87;65.81;98370.94;5031069;28;20033;-72
2022/09/17 06:39:10;;;;;;;10.20;4.57;;;;;;;19.98;65.10;98382.97;5035123;28;20591;-71
2022/09/17 06:41:42;;;;;;;17.10;5.47;;;;;;;20.11;64.93;98380.38;5030467;28;20032;-73
2022/09/17 06:44:08;;;;;;;15.57;4.43;;;;;;;20.22;64.45;98391.56;5047541;28;20097;-72
2022/09/17 06:46:33;;;;;;;10.82;4.00;;;;;;;20.19;64.49;98395.28;5031857;28;20025;-72
2022/09/17 06:48:59;;;;;;;16.00;3.92;;;;;;;20.17;65.48;98380.72;5029772;28;20025;-72
2022/09/17 06:51:25;;;;;;;17.38;4.93;;;;;;;20.09;65.90;98360.13;5033882;28;20100;-73
2022/09/17 06:53:50;;;;;;;11.00;4.50;;;;;;;20.11;66.16;98362.53;5029098;28;20022;-73
2022/09/17 06:56:16;;;;;;;9.55;4.05;;;;;;;20.09;65.93;98384.88;5031141;28;20033;-73
2022/09/17 06:58:42;;;;;;;16.23;5.53;;;;;;;20.03;66.25;98374.00;5031061;28;20029;-73
2022/09/17 07:01:09;;;;;;;11.57;5.45;;;;;;;20.11;65.85;98359.69;5030202;28;20018;-72
2022/09/17 07:03:35;;;;;;;19.50;5.18;;;;;;;20.25;65.62;98344.50;5028815;28;20408;-73
2022/09/17 07:06:00;;;;;;;19.80;6.47;;;;;;;20.56;64.42;98338.72;5031706;28;20025;-71
2022/09/17 07:08:26;;;;;;;30.02;8.43;;;;;;;20.73;63.50;98348.19;5032393;28;20032;-71
2022/09/17 07:10:55;;;;;;;12.95;5.65;;;;;;;20.94;62.97;98360.47;5049996;28;20033;-72
2022/09/17 07:13:21;;;;;;;21.70;5.60;;;;;;;21.11;62.61;98382.06;5045925;28;20040;-71
2022/09/17 07:15:57;;;;;;;17.05;5.00;;;;;;;21.29;62.40;98372.41;5047286;28;20017;-72
2022/09/17 07:18:23;;;;;;;14.57;4.97;;;;;;;21.39;61.16;98359.22;5050848;28;20029;-71
2022/09/17 07:20:56;;;;;;;10.10;4.55;;;;;;;21.60;60.69;98353.09;5046501;28;20442;-72
2022/09/17 07:23:23;;;;;;;24.63;4.75;;;;;;;21.62;60.78;98344.16;5046661;28;20100;-73
2022/09/17 07:25:57;;;;;;;14.32;5.70;;;;;;;21.66;59.61;98324.97;5038941;28;20512;-73
2022/09/17 07:28:24;;;;;;;9.88;5.40;;;;;;;21.39;59.54;98334.44;5041206;28;20033;-73
2022/09/17 07:30:50;;;;;;;10.73;3.60;;;;;;;21.45;59.66;98329.03;5049292;28;20021;-73
2022/09/17 07:33:18;;;;;;;12.40;3.70;;;;;;;21.63;58.52;98323.00;5031340;28;20025;-73
2022/09/17 07:35:54;;;;;;;13.63;4.55;;;;;;;22.02;57.95;98318.50;5030538;28;20036;-73
2022/09/17 07:38:21;;;;;;;10.38;4.03;;;;;;;22.20;56.99;98322.97;5032838;28;20030;-73
2022/09/17 07:41:00;;;;;;;10.02;3.17;;;;;;;22.53;56.08;98327.94;5048192;28;20155;-73
2022/09/17 07:43:28;;;;;;;6.63;3.40;;;;;;;22.73;54.80;98322.16;5039597;28;20050;-72
2022/09/17 07:45:55;;;;;;;16.10;3.55;;;;;;;22.96;53.79;98314.63;5046560;28;20028;-73
2022/09/17 07:48:21;;;;;;;12.20;2.90;;;;;;;22.83;52.65;98301.13;5035886;28;20483;-73
2022/09/17 07:50:46;;;;;;;9.82;2.67;;;;;;;22.67;53.83;98313.34;5032714;28;20116;-73
2022/09/17 07:53:12;;;;;;;11.63;3.25;;;;;;;22.99;53.33;98314.56;5045522;28;20052;-73
2022/09/17 07:55:37;;;;;;;15.82;3.33;;;;;;;23.22;52.72;98309.06;5044537;28;20033;-73
2022/09/17 07:58:03;;;;;;;13.90;3.03;;;;;;;23.53;51.94;98317.16;5035651;28;20029;-71
2022/09/17 08:00:28;;;;;;;14.15;3.28;;;;;;;23.62;51.06;98296.53;5046081;28;20511;-71
2022/09/17 08:02:55;;;;;;;11.18;3.42;;;;;;;23.88;50.72;98305.94;5037605;28;20033;-71
2022/09/17 08:05:21;;;;;;;14.85;3.38;;;;;;;23.90;49.58;98300.59;5040596;28;20028;-71
2022/09/17 08:07:50;;;;;;;9.02;3.05;;;;;;;24.00;49.12;98315.78;5053914;28;20024;-71
2022/09/17 08:10:20;;;;;;;23.83;5.05;;;;;;;24.11;49.02;98315.47;5053232;28;20499;-70
2022/09/17 08:12:46;;;;;;;9.45;3.50;;;;;;;24.16;48.53;98317.78;5034501;28;20029;-71
2022/09/17 08:15:12;;;;;;;9.88;2.88;;;;;;;24.36;48.96;98305.28;5040707;28;20021;-71
2022/09/17 08:17:42;;;;;;;34.97;3.78;;;;;;;24.61;48.42;98315.09;5033344;28;20028;-71
2022/09/17 08:20:07;;;;;;;;;;;;;;;24.96;47.99;98309.44;5034728;28;20021;-71
2022/09/17 08:22:36;;;;;;;28.65;3.83;;;;;;;25.06;46.81;98301.78;5039780;28;19931;-71
2022/09/17 08:25:03;;;;;;;14.70;2.78;;;;;;;25.09;46.25;98304.47;5052323;28;20051;-71
2022/09/17 08:27:31;;;;;;;7.82;2.60;;;;;;;25.22;46.47;98303.66;5052740;28;20056;-71
2022/09/17 08:29:57;;;;;;;9.52;3.33;;;;;;;25.18;45.84;98297.25;5043491;28;20033;-71
2022/09/17 08:32:24;;;;;;;20.50;4.05;;;;;;;25.19;48.09;98302.53;5038851;28;20408;-71
2022/09/17 08:34:49;;;;;;;18.65;3.97;;;;;;;25.00;46.24;98298.69;5042781;28;20418;-71
2022/09/17 08:37:15;;;;;;;21.00;3.95;;;;;;;24.70;48.21;98303.78;5047206;28;20025;-70
2022/09/17 08:39:40;;;;;;;16.25;3.78;;;;;;;24.67;50.54;98296.13;5033726;28;20029;-73
2022/09/17 08:42:23;;;;;;;7.68;3.05;;;;;;;24.76;48.03;98301.13;5043257;28;20049;-74
2022/09/17 08:44:50;;;;;;;14.75;3.58;;;;;;;24.90;50.28;98291.28;5034392;28;20046;-73
2022/09/17 08:47:32;;;;;;;5.47;2.75;;;;;;;25.20;49.34;98294.72;5037679;28;20025;-72
2022/09/17 08:50:02;;;;;;;14.32;4.95;;;;;;;25.32;48.13;98278.78;5053082;28;20017;-73
2022/09/17 08:53:03;;;;;;;14.63;4.30;;;;;;;25.46;48.14;98265.97;5033017;28;20029;-73
2022/09/17 08:55:38;;;;;;;14.77;4.40;;;;;;;25.43;46.92;98252.59;5033383;28;20406;-73
2022/09/17 08:58:16;;;;;;;9.07;3.60;;;;;;;25.49;49.82;98267.97;5035968;28;20045;-73
2022/09/17 09:01:07;;;;;;;18.65;4.70;;;;;;;25.54;47.77;98255.88;5037810;28;20461;-73
2022/09/17 09:04:09;;;;;;;75.15;13.18;;;;;;;25.95;48.02;98253.09;5053025;28;20029;-73
2022/09/17 09:06:42;;;;;;;27.92;9.85;;;;;;;26.13;46.15;98255.22;5052884;28;20017;-73
2022/09/17 09:09:14;;;;;;;293.83;19.10;;;;;;;26.27;45.74;98245.28;5052686;28;20021;-73
2022/09/17 09:11:41;;;;;;;12.18;5.28;;;;;;;26.35;45.26;98237.97;5052640;28;20028;-73
2022/09/17 09:14:20;;;;;;;10.75;3.90;;;;;;;25.95;44.55;98232.25;5037484;28;20156;-73
2022/09/17 09:16:48;;;;;;;39.85;10.77;;;;;;;26.32;44.57;98238.13;5032729;28;20090;-72
2022/09/17 09:19:25;;;;;;;21.08;11.05;;;;;;;26.39;44.03;98225.56;5032729;28;20022;-73
2022/09/17 09:21:54;;;;;;;22.67;6.55;;;;;;;26.53;44.38;98224.16;5038006;28;20078;-73
2022/09/17 09:24:25;;;;;;;16.52;4.85;;;;;;;26.66;43.95;98209.69;5041827;28;20085;-73
2022/09/17 09:27:02;;;;;;;8.30;3.20;;;;;;;26.65;44.45;98200.28;5045096;28;20070;-73
2022/09/17 09:29:43;;;;;;;11.15;3.33;;;;;;;26.77;43.08;98182.13;5049581;28;20518;-74
2022/09/17 09:32:33;;;;;;;12.50;3.80;;;;;;;27.07;42.85;98180.88;5032058;28;20458;-74
2022/09/17 09:35:02;;;;;;;10.60;3.05;;;;;;;27.27;44.37;98183.22;5028635;28;20034;-74
2022/09/17 09:37:32;;;;;;;15.48;3.38;;;;;;;27.35;42.73;98184.50;5030012;28;20043;-74
2022/09/17 09:40:33;;;;;;;17.23;4.20;;;;;;;27.56;43.16;98179.00;5049812;28;20557;-74
2022/09/17 09:43:02;;;;;;;9.00;3.10;;;;;;;27.49;42.39;98183.00;5047592;28;20033;-74
2022/09/17 09:45:46;;;;;;;10.73;4.00;;;;;;;27.48;41.83;98192.88;5049532;28;20610;-74
2022/09/17 09:48:41;;;;;;;20.45;3.67;;;;;;;27.50;42.15;98180.94;5049120;28;20025;-73
2022/09/17 09:51:25;;;;;;;12.82;3.58;;;;;;;27.67;42.83;98185.03;5048836;28;20095;-74
2022/09/17 09:54:08;;;;;;;8.27;2.90;;;;;;;27.69;41.70;98161.59;5048822;28;20033;-74
2022/09/17 09:56:55;;;;;;;11.57;3.58;;;;;;;27.99;41.12;98156.00;5029568;28;20037;-73
2022/09/17 09:59:21;;;;;;;9.88;2.88;;;;;;;28.16;41.30;98139.97;5036171;28;20033;-74
2022/09/17 10:01:46;;;;;;;10.77;3.10;;;;;;;28.36;41.37;98157.91;5029375;28;20091;-73
2022/09/17 10:04:26;;;;;;;13.88;3.65;;;;;;;27.96;40.19;98172.16;5032448;28;20086;-73
2022/09/17 10:06:53;;;;;;;;;;;;;;;27.47;41.66;98180.63;5031083;28;20504;-73
2022/09/17 10:09:21;;;;;;;13.18;2.95;;;;;;;27.97;41.33;98181.56;5032789;28;19923;-73
2022/09/17 10:12:09;;;;;;;8.10;2.65;;;;;;;27.50;41.71;98192.41;5041932;28;20022;-74
2022/09/17 10:14:43;;;;;;;21.90;3.90;;;;;;;27.64;42.44;98200.38;5031535;28;20481;-74
2022/09/17 10:17:23;;;;;;;7.88;3.63;;;;;;;27.80;44.12;98190.59;5051414;28;20464;-74
2022/09/17 10:20:01;;;;;;;;;;;;;;;27.67;41.71;98181.38;5048748;28;20027;-74
2022/09/17 10:22:52;;;;;;;11.68;4.03;;;;;;;27.77;42.38;98197.31;5041713;28;19908;-74
2022/09/17 10:25:42;;;;;;;12.20;3.38;;;;;;;27.91;41.52;98207.28;5051078;28;20037;-73
2022/09/17 10:28:32;;;;;;;12.50;2.80;;;;;;;27.59;42.11;98193.22;5048963;28;20028;-73
2022/09/17 10:31:05;;;;;;;9.52;3.08;;;;;;;27.59;43.67;98187.47;5042052;28;20053;-73
2022/09/17 10:33:31;;;;;;;7.93;2.58;;;;;;;27.28;42.47;98177.00;5029990;28;20458;-73
2022/09/17 10:36:13;;;;;;;10.50;3.22;;;;;;;27.38;42.75;98206.47;5047128;28;20028;-73
2022/09/17 10:38:41;;;;;;;9.25;3.13;;;;;;;27.35;44.68;98221.81;5051072;28;20036;-72
2022/09/17 10:41:21;;;;;;;8.88;3.38;;;;;;;27.33;44.59;98228.00;5051015;28;20024;-72
2022/09/17 10:43:48;;;;;;;14.93;4.57;;;;;;;27.63;44.81;98226.69;5043036;28;20106;-73
2022/09/17 10:46:28;;;;;;;21.55;5.43;;;;;;;27.81;43.58;98222.97;5031950;28;20025;-73
2022/09/17 10:49:04;;;;;;;10.23;3.33;;;;;;;27.95;43.72;98241.59;5029732;28;20404;-73
2022/09/17 10:51:31;;;;;;;12.02;2.90;;;;;;;28.05;46.88;98274.75;5031083;28;20032;-72
2022/09/17 10:54:14;;;;;;;15.18;7.00;;;;;;;27.96;47.88;98269.03;5031077;28;20030;-72
2022/09/17 10:56:47;;;;;;;34.38;13.63;;;;;;;27.67;50.20;98293.38;5031026;28;20091;-72
2022/09/17 10:59:36;;;;;;;12.00;5.97;;;;;;;26.92;50.83;98353.63;5029701;28;20024;-72
2022/09/17 11:02:43;;;;;;;24.42;3.10;;;;;;;25.60;53.59;98397.16;5029599;28;20036;-72
2022/09/17 11:05:27;;;;;;;11.70;3.97;;;;;;;23.97;62.38;98428.06;5030950;28;20108;-71
2022/09/17 11:07:56;;;;;;;15.38;4.63;;;;;;;23.32;65.44;98444.91;5030915;28;20060;-73
2022/09/17 11:10:29;;;;;;;13.02;3.55;;;;;;;22.39;70.08;98477.97;5029436;28;20025;-72
2022/09/17 11:13:10;;;;;;;18.27;2.72;;;;;;;21.07;74.25;98452.41;5034292;28;20477;-73
2022/09/17 11:16:08;;;;;;;12.02;2.08;;;;;;;20.71;73.81;98470.78;5034915;28;20032;-72
2022/09/17 11:18:43;;;;;;;16.52;3.33;;;;;;;20.30;76.77;98471.75;5044281;28;20021;-71
2022/09/17 11:21:32;;;;;;;9.05;1.65;;;;;;;20.18;81.15;98515.72;5053874;28;20025;-70
2022/09/17 11:23:58;;;;;;;6.47;2.08;;;;;;;20.08;80.35;98469.19;5042599;28;20032;-70
2022/09/17 11:26:51;;;;;;;6.22;1.60;;;;;;;20.14;80.67;98402.22;5053796;28;20100;-70
2022/09/17 11:29:19;;;;;;;10.15;2.63;;;;;;;20.39;83.14;98463.53;5054592;28;20057;-70
2022/09/17 11:32:04;;;;;;;6.20;1.40;;;;;;;20.63;81.18;98438.03;5053246;28;20024;-70
2022/09/17 11:35:14;;;;;;;6.45;1.33;;;;;;;20.92;79.49;98451.81;5054570;28;20024;-70
2022/09/17 11:38:15;;;;;;;4.45;1.35;;;;;;;21.42;79.94;98435.94;5044606;28;20044;-71
2022/09/17 11:40:43;;;;;;;9.30;2.15;;;;;;;21.65;77.63;98425.78;5033394;28;20080;-71
2022/09/17 11:43:27;;;;;;;7.10;1.73;;;;;;;21.68;78.01;98421.28;5034281;28;20064;-71
2022/09/17 11:46:14;;;;;;;9.15;1.90;;;;;;;21.67;75.91;98411.16;5034450;28;20026;-71
2022/09/17 11:48:54;;;;;;;5.60;1.50;;;;;;;21.72;74.79;98377.31;5033026;28;20025;-71
2022/09/17 11:51:57;;;;;;;2.08;1.10;;;;;;;21.87;75.86;98355.00;5034229;28;20088;-71